createdAt,value
2023-09-30T00:02:17.305Z,4.60
2023-09-30T00:04:45.119Z,4.73
2023-09-30T00:07:12.763Z,4.20
2023-09-30T00:09:41.148Z,4.60
2023-09-30T00:12:10.083Z,4.53
2023-09-30T00:14:38.772Z,4.50
2023-09-30T00:17:06.631Z,4.73
2023-09-30T00:19:34.188Z,4.67
2023-09-30T00:22:02.053Z,4.60
2023-09-30T00:24:29.880Z,5.10
2023-09-30T00:26:57.499Z,4.70
2023-09-30T00:29:27.686Z,4.50
2023-09-30T00:31:55.288Z,4.47
2023-09-30T00:34:22.764Z,4.20
2023-09-30T00:36:50.347Z,4.43
2023-09-30T00:39:18.287Z,4.23
2023-09-30T00:41:45.726Z,4.47
2023-09-30T00:44:13.241Z,4.10
2023-09-30T00:46:44.072Z,4.23
2023-09-30T00:49:12.748Z,4.20
2023-09-30T00:51:40.807Z,4.40
2023-09-30T00:54:09.964Z,4.27
2023-09-30T00:56:45.602Z,4.80
2023-09-30T00:59:13.546Z,4.00
2023-09-30T01:01:42.836Z,4.10
2023-09-30T01:04:11.143Z,3.97
2023-09-30T01:06:38.817Z,4.77
2023-09-30T01:09:06.501Z,4.73
2023-09-30T01:11:34.200Z,4.20
2023-09-30T01:14:01.707Z,4.50
2023-09-30T01:16:29.357Z,4.30
2023-09-30T01:18:58.905Z,4.47
2023-09-30T01:21:28.870Z,4.20
2023-09-30T01:23:58.121Z,4.27
2023-09-30T01:26:25.763Z,4.43
2023-09-30T01:28:53.371Z,4.50
2023-09-30T01:31:20.886Z,4.83
2023-09-30T01:33:48.459Z,4.47
2023-09-30T01:36:16.028Z,4.93
2023-09-30T01:38:43.658Z,4.77
2023-09-30T01:41:12.598Z,4.60
2023-09-30T01:43:40.103Z,4.80
2023-09-30T01:46:07.779Z,4.67
2023-09-30T01:48:35.977Z,4.60
2023-09-30T01:51:03.678Z,4.80
2023-09-30T01:53:31.219Z,4.30
2023-09-30T01:55:58.807Z,4.50
2023-09-30T01:58:27.630Z,4.80
2023-09-30T02:00:55.150Z,4.80
2023-09-30T02:03:22.913Z,5.13
2023-09-30T02:05:50.707Z,5.13
2023-09-30T02:08:19.360Z,4.83
2023-09-30T02:10:46.852Z,4.93
2023-09-30T02:13:14.489Z,4.73
2023-09-30T02:15:43.424Z,4.57
2023-09-30T02:18:11.310Z,4.77
2023-09-30T02:20:40.742Z,5.20
2023-09-30T02:23:08.324Z,5.07
2023-09-30T02:25:35.798Z,4.87
2023-09-30T02:28:03.329Z,5.00
2023-09-30T02:30:31.850Z,4.53
2023-09-30T02:33:00.889Z,5.00
2023-09-30T02:35:28.487Z,4.93
2023-09-30T02:37:55.998Z,4.50
2023-09-30T02:40:25.746Z,4.70
2023-09-30T02:42:53.585Z,4.70
2023-09-30T02:45:21.156Z,5.10
2023-09-30T02:47:49.073Z,4.77
2023-09-30T02:50:17.995Z,5.10
2023-09-30T02:52:45.658Z,5.30
2023-09-30T02:55:13.983Z,4.90
2023-09-30T02:57:41.641Z,5.30
2023-09-30T03:00:21.915Z,4.90
2023-09-30T03:02:49.569Z,5.43
2023-09-30T03:05:18.495Z,5.50
2023-09-30T03:07:46.610Z,5.00
2023-09-30T03:10:15.210Z,5.30
2023-09-30T03:12:42.737Z,5.17
2023-09-30T03:15:11.207Z,5.60
2023-09-30T03:17:38.909Z,5.30
2023-09-30T03:20:13.086Z,5.43
2023-09-30T03:22:43.163Z,5.37
2023-09-30T03:25:12.646Z,5.20
2023-09-30T03:27:40.641Z,5.13
2023-09-30T03:30:10.060Z,5.37
2023-09-30T03:32:39.061Z,5.37
2023-09-30T03:35:06.831Z,5.53
2023-09-30T03:37:35.684Z,5.10
2023-09-30T03:40:13.169Z,5.43
2023-09-30T03:42:40.991Z,5.10
2023-09-30T03:45:10.192Z,5.07
2023-09-30T03:47:38.954Z,5.60
2023-09-30T03:50:13.707Z,5.20
2023-09-30T03:52:45.066Z,5.63
2023-09-30T03:55:16.211Z,5.60
2023-09-30T03:57:43.762Z,5.70
2023-09-30T04:00:17.330Z,5.90
2023-09-30T04:02:44.921Z,5.50
2023-09-30T04:05:15.141Z,5.33
2023-09-30T04:07:43.326Z,5.60
2023-09-30T04:10:12.065Z,5.33
2023-09-30T04:12:40.979Z,4.70
2023-09-30T04:15:13.013Z,5.30
2023-09-30T04:17:41.138Z,5.17
2023-09-30T04:20:11.708Z,5.00
2023-09-30T04:22:40.123Z,5.70
2023-09-30T04:25:11.681Z,5.47
2023-09-30T04:27:39.342Z,6.30
2023-09-30T04:30:11.879Z,5.57
2023-09-30T04:32:39.768Z,5.43
2023-09-30T04:35:08.816Z,5.37
2023-09-30T04:37:37.594Z,5.10
2023-09-30T04:40:10.275Z,5.60
2023-09-30T04:42:38.134Z,5.53
2023-09-30T04:45:07.675Z,6.00
2023-09-30T04:47:36.514Z,5.80
2023-09-30T04:50:05.914Z,5.57
2023-09-30T04:52:33.621Z,5.60
2023-09-30T04:55:01.255Z,5.50
2023-09-30T04:57:29.130Z,5.37
2023-09-30T04:59:56.812Z,5.50
2023-09-30T05:02:25.587Z,5.57
2023-09-30T05:04:54.563Z,6.10
2023-09-30T05:07:22.509Z,5.67
2023-09-30T05:09:50.245Z,6.27
2023-09-30T05:12:18.292Z,5.00
2023-09-30T05:14:45.815Z,5.70
2023-09-30T05:17:14.384Z,5.30
2023-09-30T05:19:42.227Z,6.20
2023-09-30T05:22:11.142Z,5.70
2023-09-30T05:24:38.721Z,5.80
2023-09-30T05:27:06.195Z,5.53
2023-09-30T05:29:34.402Z,5.70
2023-09-30T05:32:01.944Z,5.20
2023-09-30T05:34:29.896Z,5.30
2023-09-30T05:36:57.641Z,5.57
2023-09-30T05:39:26.728Z,5.93
2023-09-30T05:41:54.806Z,5.23
2023-09-30T05:44:23.114Z,5.43
2023-09-30T05:46:51.018Z,5.57
2023-09-30T05:49:20.201Z,6.00
2023-09-30T05:51:48.273Z,5.53
2023-09-30T05:54:15.839Z,5.37
2023-09-30T05:56:44.790Z,5.27
2023-09-30T05:59:14.561Z,5.50
2023-09-30T06:01:43.452Z,5.30
2023-09-30T06:04:11.644Z,5.50
2023-09-30T06:06:39.392Z,5.83
2023-09-30T06:09:08.917Z,4.90
2023-09-30T06:11:37.064Z,4.90
2023-09-30T06:14:07.406Z,5.23
2023-09-30T06:16:35.807Z,5.60
2023-09-30T06:19:04.202Z,5.10
2023-09-30T06:21:32.294Z,5.03
2023-09-30T06:23:59.876Z,5.30
2023-09-30T06:26:29.913Z,5.00
2023-09-30T06:28:57.816Z,4.97
2023-09-30T06:31:28.475Z,4.97
2023-09-30T06:33:59.215Z,5.07
2023-09-30T06:36:26.835Z,5.40
2023-09-30T06:38:54.296Z,5.17
2023-09-30T06:41:21.942Z,5.00
2023-09-30T06:43:50.025Z,5.17
2023-09-30T06:46:17.708Z,5.13
2023-09-30T06:48:46.688Z,4.80
2023-09-30T06:51:18.314Z,5.27
2023-09-30T06:53:46.731Z,5.40
2023-09-30T06:56:16.060Z,5.73
2023-09-30T06:58:44.578Z,5.67
2023-09-30T07:01:17.513Z,5.33
2023-09-30T07:03:46.534Z,5.57
2023-09-30T07:06:14.055Z,4.80
2023-09-30T07:08:41.600Z,5.03
2023-09-30T07:11:11.072Z,4.93
2023-09-30T07:13:38.540Z,4.40
2023-09-30T07:16:06.988Z,3.90
2023-09-30T07:18:34.610Z,4.03
2023-09-30T07:21:03.476Z,4.30
2023-09-30T07:23:31.961Z,3.40
2023-09-30T07:26:00.255Z,3.50
2023-09-30T07:28:27.743Z,3.20
2023-09-30T07:30:55.808Z,3.23
2023-09-30T07:33:23.475Z,3.03
2023-09-30T07:35:51.179Z,3.00
2023-09-30T07:38:20.180Z,3.00
2023-09-30T07:40:47.673Z,3.00
2023-09-30T07:43:15.346Z,3.13
2023-09-30T07:45:44.835Z,3.03
2023-09-30T07:48:12.634Z,3.60
2023-09-30T07:50:40.470Z,3.47
2023-09-30T07:53:08.037Z,3.60
2023-09-30T07:55:36.904Z,3.40
2023-09-30T07:58:04.834Z,3.23
2023-09-30T08:00:34.870Z,3.63
2023-09-30T08:03:02.478Z,2.90
2023-09-30T08:05:29.960Z,2.77
2023-09-30T08:07:57.422Z,3.20
2023-09-30T08:10:25.057Z,2.90
2023-09-30T08:12:54.144Z,3.37
2023-09-30T08:15:21.713Z,3.37
2023-09-30T08:17:49.276Z,3.00
2023-09-30T08:20:16.945Z,3.10
2023-09-30T08:22:44.476Z,3.50
2023-09-30T08:25:12.477Z,4.00
2023-09-30T08:27:40.538Z,3.53
2023-09-30T08:30:11.359Z,3.60
2023-09-30T08:32:39.249Z,3.30
2023-09-30T08:35:08.235Z,3.63
2023-09-30T08:37:35.775Z,3.07
2023-09-30T08:40:05.750Z,3.23
2023-09-30T08:42:35.966Z,3.33
2023-09-30T08:45:04.099Z,3.38
2023-09-30T08:47:35.175Z,3.30
2023-09-30T08:50:08.092Z,3.40
2023-09-30T08:52:40.290Z,3.15
2023-09-30T08:55:10.173Z,3.42
2023-09-30T08:57:40.419Z,3.30
2023-09-30T09:00:12.590Z,3.53
2023-09-30T09:02:42.142Z,3.45
2023-09-30T09:05:13.266Z,3.13
2023-09-30T09:07:41.094Z,3.65
2023-09-30T09:10:11.278Z,3.50
2023-09-30T09:12:40.642Z,3.38
2023-09-30T09:15:10.105Z,2.95
2023-09-30T09:17:46.592Z,3.25
2023-09-30T09:20:21.167Z,2.80
2023-09-30T09:22:51.812Z,2.72
2023-09-30T09:25:19.439Z,2.75
2023-09-30T09:27:47.257Z,3.05
2023-09-30T09:30:22.010Z,2.95
2023-09-30T09:33:02.196Z,3.28
2023-09-30T09:35:33.312Z,2.65
2023-09-30T09:38:02.326Z,3.15
2023-09-30T09:40:33.136Z,2.80
2023-09-30T09:43:03.639Z,2.72
2023-09-30T09:45:33.934Z,2.70
2023-09-30T09:48:05.623Z,2.53
2023-09-30T09:50:33.777Z,2.65
2023-09-30T09:53:01.908Z,2.80
2023-09-30T09:55:29.710Z,2.63
2023-09-30T09:57:59.871Z,2.50
2023-09-30T10:00:28.586Z,2.75
2023-09-30T10:02:56.171Z,3.08
2023-09-30T10:05:25.278Z,2.88
2023-09-30T10:07:56.030Z,2.55
2023-09-30T10:10:25.943Z,2.95
2023-09-30T10:12:53.719Z,2.45
2023-09-30T10:15:40.736Z,2.78
2023-09-30T10:18:13.873Z,2.65
2023-09-30T10:20:48.801Z,2.78
2023-09-30T10:23:26.664Z,2.50
2023-09-30T10:25:58.939Z,2.65
2023-09-30T10:28:42.951Z,2.53
2023-09-30T10:31:14.902Z,2.60
2023-09-30T10:34:22.271Z,2.90
2023-09-30T10:36:53.822Z,2.55
2023-09-30T10:39:55.752Z,2.60
2023-09-30T10:42:46.752Z,2.42
2023-09-30T10:45:46.260Z,2.60
2023-09-30T10:48:38.134Z,2.53
2023-09-30T10:51:16.701Z,2.63
2023-09-30T10:53:48.543Z,2.70
2023-09-30T10:56:17.074Z,2.70
2023-09-30T10:58:46.119Z,2.83
2023-09-30T11:01:15.102Z,2.85
2023-09-30T11:03:43.376Z,2.50
2023-09-30T11:06:14.797Z,2.65
2023-09-30T11:08:51.738Z,2.60
2023-09-30T11:11:19.228Z,2.45
2023-09-30T11:13:46.732Z,2.60
2023-09-30T11:16:14.176Z,2.60
2023-09-30T11:18:41.706Z,2.88
2023-09-30T11:21:12.523Z,2.35
2023-09-30T11:23:40.561Z,2.28
2023-09-30T11:26:10.289Z,2.38
2023-09-30T11:28:40.562Z,2.40
2023-09-30T11:31:11.741Z,2.53
2023-09-30T11:33:53.685Z,2.25
2023-09-30T11:36:23.064Z,2.28
2023-09-30T11:38:53.819Z,2.50
2023-09-30T11:41:23.482Z,2.70
2023-09-30T11:44:09.963Z,2.78
2023-09-30T11:46:53.365Z,2.80
2023-09-30T11:49:29.330Z,2.50
2023-09-30T11:51:58.457Z,2.40
2023-09-30T11:54:31.111Z,2.50
2023-09-30T11:57:00.738Z,2.42
2023-09-30T11:59:28.282Z,2.97
2023-09-30T12:02:10.731Z,2.50
2023-09-30T12:04:41.226Z,2.35
2023-09-30T12:07:09.290Z,2.10
2023-09-30T12:09:38.505Z,2.50
2023-09-30T12:12:10.260Z,2.22
2023-09-30T12:14:38.112Z,2.33
2023-09-30T12:17:05.855Z,2.33
2023-09-30T12:19:33.429Z,2.40
2023-09-30T12:22:01.416Z,2.40
2023-09-30T12:24:29.027Z,2.20
2023-09-30T12:26:56.844Z,1.77
2023-09-30T12:29:25.688Z,2.30
2023-09-30T12:31:55.633Z,1.77
2023-09-30T12:34:24.740Z,2.35
2023-09-30T12:36:52.719Z,2.20
2023-09-30T12:39:25.516Z,1.90
2023-09-30T12:41:54.205Z,2.03
2023-09-30T12:44:21.848Z,1.80
2023-09-30T12:46:51.023Z,1.80
2023-09-30T12:49:19.357Z,1.80
2023-09-30T12:51:46.952Z,2.10
2023-09-30T12:54:15.700Z,2.00
2023-09-30T12:56:43.639Z,1.70
2023-09-30T12:59:11.205Z,1.63
2023-09-30T13:01:40.109Z,1.67
2023-09-30T13:04:10.013Z,1.50
2023-09-30T13:06:37.992Z,1.70
2023-09-30T13:09:06.137Z,1.70
2023-09-30T13:11:37.191Z,1.90
2023-09-30T13:14:05.446Z,1.67
2023-09-30T13:16:33.356Z,1.83
2023-09-30T13:19:01.411Z,1.80
2023-09-30T13:21:30.526Z,1.60
2023-09-30T13:23:58.025Z,1.70
2023-09-30T13:26:26.494Z,1.73
2023-09-30T13:28:54.005Z,1.70
2023-09-30T13:31:21.676Z,1.75
2023-09-30T13:33:49.224Z,1.80
2023-09-30T13:36:16.745Z,1.58
2023-09-30T13:38:45.618Z,1.60
2023-09-30T13:41:13.528Z,1.67
2023-09-30T13:43:41.033Z,1.95
2023-09-30T13:46:08.676Z,1.77
2023-09-30T13:48:37.670Z,1.60
2023-09-30T13:51:09.074Z,1.80
2023-09-30T13:53:37.082Z,2.20
2023-09-30T13:56:06.015Z,2.00
2023-09-30T13:58:33.605Z,1.80
2023-09-30T14:01:01.238Z,1.80
2023-09-30T14:03:29.760Z,1.92
2023-09-30T14:05:57.944Z,1.75
2023-09-30T14:08:25.746Z,1.80
2023-09-30T14:10:53.438Z,1.92
2023-09-30T14:13:22.523Z,1.83
2023-09-30T14:15:50.146Z,1.80
2023-09-30T14:18:18.031Z,2.10
2023-09-30T14:20:45.697Z,1.83
2023-09-30T14:23:13.259Z,1.70
2023-09-30T14:25:41.329Z,1.90
2023-09-30T14:28:08.902Z,1.95
2023-09-30T14:30:37.843Z,1.80
2023-09-30T14:33:05.989Z,1.80
2023-09-30T14:35:35.073Z,2.08
2023-09-30T14:38:02.669Z,1.70
2023-09-30T14:40:30.257Z,1.80
2023-09-30T14:42:57.924Z,1.70
2023-09-30T14:45:25.478Z,1.65
2023-09-30T14:47:54.386Z,2.00
2023-09-30T14:50:21.886Z,1.80
2023-09-30T14:52:50.448Z,1.75
2023-09-30T14:55:18.257Z,1.70
2023-09-30T14:57:45.820Z,1.70
2023-09-30T15:00:14.906Z,2.10
2023-09-30T15:02:42.410Z,1.92
2023-09-30T15:05:11.288Z,1.77
2023-09-30T15:07:39.416Z,1.92
2023-09-30T15:10:08.027Z,1.80
2023-09-30T15:12:35.630Z,2.00
2023-09-30T15:15:04.928Z,1.83
2023-09-30T15:17:33.039Z,1.98
2023-09-30T15:20:00.859Z,1.80
2023-09-30T15:22:29.766Z,1.50
2023-09-30T15:24:57.598Z,1.80
2023-09-30T15:27:25.921Z,1.70
2023-09-30T15:29:53.597Z,1.83
2023-09-30T15:32:21.219Z,1.58
2023-09-30T15:34:48.777Z,1.50
2023-09-30T15:37:16.330Z,1.70
2023-09-30T15:39:47.975Z,1.90
2023-09-30T15:42:16.455Z,2.45
2023-09-30T15:44:43.993Z,1.85
2023-09-30T15:47:11.765Z,1.70
2023-09-30T15:49:39.644Z,2.03
2023-09-30T15:52:07.177Z,1.80
2023-09-30T15:54:34.766Z,1.80
2023-09-30T15:57:03.601Z,2.00
2023-09-30T15:59:31.058Z,1.80
2023-09-30T16:01:58.869Z,1.80
2023-09-30T16:04:26.645Z,1.65
2023-09-30T16:06:54.394Z,1.60
2023-09-30T16:09:21.904Z,1.85
2023-09-30T16:11:49.737Z,1.70
2023-09-30T16:14:18.763Z,1.77
2023-09-30T16:16:46.296Z,1.60
2023-09-30T16:19:13.902Z,1.90
2023-09-30T16:21:41.576Z,1.70
2023-09-30T16:24:09.362Z,1.83
2023-09-30T16:26:36.803Z,1.70
2023-09-30T16:29:04.653Z,1.98
2023-09-30T16:31:33.773Z,1.50
2023-09-30T16:34:02.216Z,1.90
2023-09-30T16:36:29.904Z,2.17
2023-09-30T16:38:57.616Z,1.70
2023-09-30T16:41:25.282Z,2.03
2023-09-30T16:43:52.985Z,2.20
2023-09-30T16:46:20.595Z,2.20
2023-09-30T16:48:49.569Z,1.87
2023-09-30T16:51:17.086Z,2.20
2023-09-30T16:53:45.095Z,1.97
2023-09-30T16:56:12.600Z,1.97
2023-09-30T16:58:40.115Z,2.10
2023-09-30T17:01:11.435Z,1.90
2023-09-30T17:03:39.087Z,2.20
2023-09-30T17:06:08.369Z,1.90
2023-09-30T17:08:36.582Z,1.90
2023-09-30T17:11:04.685Z,2.20
2023-09-30T17:13:32.457Z,2.10
2023-09-30T17:15:59.978Z,1.93
2023-09-30T17:18:27.552Z,2.00
2023-09-30T17:20:55.931Z,2.13
2023-09-30T17:23:24.777Z,2.20
2023-09-30T17:25:52.283Z,2.20
2023-09-30T17:28:23.950Z,2.20
2023-09-30T17:30:51.461Z,2.27
2023-09-30T17:33:19.043Z,2.17
2023-09-30T17:35:46.545Z,2.07
2023-09-30T17:38:14.066Z,2.10
2023-09-30T17:40:42.902Z,2.37
2023-09-30T17:43:10.439Z,2.23
2023-09-30T17:45:38.016Z,2.17
2023-09-30T17:48:06.547Z,2.37
2023-09-30T17:50:34.080Z,2.17
2023-09-30T17:53:01.546Z,2.27
2023-09-30T17:55:29.039Z,2.10
2023-09-30T17:57:58.441Z,2.23
2023-09-30T18:00:28.073Z,2.30
2023-09-30T18:02:55.562Z,2.30
2023-09-30T18:05:24.771Z,2.50
2023-09-30T18:07:52.276Z,2.17
2023-09-30T18:10:20.978Z,2.17
2023-09-30T18:12:48.445Z,1.90
2023-09-30T18:15:17.807Z,2.10
2023-09-30T18:17:53.694Z,2.90
2023-09-30T18:20:34.418Z,2.37
2023-09-30T18:23:03.479Z,2.33
2023-09-30T18:25:35.326Z,2.33
2023-09-30T18:28:03.977Z,2.40
2023-09-30T18:30:32.937Z,2.30
2023-09-30T18:33:00.651Z,2.30
2023-09-30T18:35:28.143Z,2.50
2023-09-30T18:37:55.591Z,2.50
2023-09-30T18:40:24.578Z,2.20
2023-09-30T18:42:52.630Z,2.40
2023-09-30T18:45:20.165Z,2.47
2023-09-30T18:47:51.079Z,2.40
2023-09-30T18:50:18.746Z,3.07
2023-09-30T18:52:46.240Z,2.50
2023-09-30T18:55:13.793Z,2.40
2023-09-30T18:57:41.273Z,2.43
2023-09-30T19:00:12.083Z,2.50
2023-09-30T19:02:39.772Z,2.90
2023-09-30T19:05:09.758Z,2.60
2023-09-30T19:07:37.282Z,2.57
2023-09-30T19:10:05.225Z,2.40
2023-09-30T19:12:32.714Z,2.93
2023-09-30T19:15:00.239Z,2.57
2023-09-30T19:17:27.760Z,2.70
2023-09-30T19:19:55.570Z,2.60
2023-09-30T19:22:24.755Z,3.00
2023-09-30T19:24:52.476Z,2.70
2023-09-30T19:27:19.994Z,2.73
2023-09-30T19:29:47.636Z,2.90
2023-09-30T19:32:15.253Z,2.83
2023-09-30T19:34:42.897Z,2.57
2023-09-30T19:37:10.434Z,2.70
2023-09-30T19:39:39.294Z,2.73
2023-09-30T19:42:07.376Z,2.80
2023-09-30T19:44:35.629Z,2.70
2023-09-30T19:47:03.339Z,3.10
2023-09-30T19:49:32.060Z,2.70
2023-09-30T19:51:59.613Z,2.73
2023-09-30T19:54:27.109Z,3.00
2023-09-30T19:56:56.018Z,2.70
2023-09-30T19:59:23.513Z,2.60
2023-09-30T20:01:53.741Z,3.30
2023-09-30T20:04:21.404Z,3.10
2023-09-30T20:06:49.938Z,2.87
2023-09-30T20:09:18.715Z,2.50
2023-09-30T20:11:46.189Z,3.00
2023-09-30T20:14:15.033Z,2.80
2023-09-30T20:16:45.403Z,2.80
2023-09-30T20:19:13.152Z,3.10
2023-09-30T20:21:40.716Z,3.10
2023-09-30T20:24:08.619Z,3.10
2023-09-30T20:26:36.506Z,2.70
2023-09-30T20:29:05.570Z,3.20
2023-09-30T20:31:35.948Z,3.07
2023-09-30T20:34:03.943Z,3.20
2023-09-30T20:36:31.918Z,3.13
2023-09-30T20:39:00.638Z,3.10
2023-09-30T20:41:28.419Z,2.90
2023-09-30T20:43:55.922Z,3.23
2023-09-30T20:46:25.849Z,3.20
2023-09-30T20:48:55.092Z,2.83
2023-09-30T20:51:22.659Z,3.30
2023-09-30T20:53:51.385Z,3.10
2023-09-30T20:56:18.869Z,2.80
2023-09-30T20:58:48.148Z,2.93
2023-09-30T21:01:17.821Z,3.20
2023-09-30T21:03:46.205Z,3.37
2023-09-30T21:06:15.276Z,2.93
2023-09-30T21:08:43.330Z,2.70
2023-09-30T21:11:10.888Z,3.20
2023-09-30T21:13:39.837Z,2.90
2023-09-30T21:16:07.381Z,2.80
2023-09-30T21:18:35.432Z,3.00
2023-09-30T21:21:03.057Z,3.37
2023-09-30T21:23:31.931Z,2.93
2023-09-30T21:25:59.404Z,3.10
2023-09-30T21:28:27.186Z,2.90
2023-09-30T21:30:54.845Z,2.70
2023-09-30T21:33:22.408Z,3.13
2023-09-30T21:35:56.662Z,2.70
2023-09-30T21:38:24.174Z,3.30
2023-09-30T21:40:53.136Z,3.10
2023-09-30T21:43:20.667Z,3.43
2023-09-30T21:45:48.283Z,3.00
2023-09-30T21:48:15.728Z,3.17
2023-09-30T21:50:43.278Z,3.20
2023-09-30T21:53:11.517Z,2.77
2023-09-30T21:55:40.828Z,2.80
2023-09-30T21:58:09.964Z,3.10
2023-09-30T22:00:40.364Z,2.90
2023-09-30T22:03:09.847Z,3.10
2023-09-30T22:05:40.556Z,3.27
2023-09-30T22:08:08.217Z,2.80
2023-09-30T22:10:36.008Z,3.00
2023-09-30T22:13:04.063Z,2.93
2023-09-30T22:15:34.054Z,3.00
2023-09-30T22:18:03.935Z,2.70
2023-09-30T22:20:33.491Z,3.10
2023-09-30T22:23:01.098Z,2.83
2023-09-30T22:25:28.671Z,3.13
2023-09-30T22:27:56.235Z,3.00
2023-09-30T22:30:23.907Z,3.13
2023-09-30T22:32:53.231Z,3.03
2023-09-30T22:35:21.258Z,3.10
2023-09-30T22:37:49.100Z,3.13
2023-09-30T22:40:16.953Z,3.13
2023-09-30T22:42:44.957Z,2.90
2023-09-30T22:45:12.651Z,2.80
2023-09-30T22:47:44.978Z,3.07
2023-09-30T22:50:14.535Z,2.90
2023-09-30T22:52:43.282Z,2.70
2023-09-30T22:55:15.074Z,2.90
2023-09-30T22:57:43.169Z,2.90
2023-09-30T23:00:12.792Z,3.00
2023-09-30T23:02:41.630Z,3.30
2023-09-30T23:05:12.392Z,2.90
2023-09-30T23:07:45.652Z,2.60
2023-09-30T23:10:15.605Z,2.70
2023-09-30T23:12:43.273Z,2.93
2023-09-30T23:15:11.779Z,2.70
2023-09-30T23:17:43.107Z,2.90
2023-09-30T23:20:16.300Z,3.30
2023-09-30T23:22:49.715Z,2.80
2023-09-30T23:25:19.770Z,2.97
2023-09-30T23:27:48.560Z,2.70
2023-09-30T23:30:17.311Z,2.43
2023-09-30T23:32:45.461Z,2.53
2023-09-30T23:35:15.665Z,2.93
2023-09-30T23:37:47.516Z,2.67
2023-09-30T23:40:18.487Z,2.63
2023-09-30T23:42:46.303Z,2.90
2023-09-30T23:45:15.621Z,2.80
2023-09-30T23:47:51.474Z,2.60
2023-09-30T23:50:20.824Z,2.63
2023-09-30T23:52:52.385Z,2.90
2023-09-30T23:55:23.790Z,2.80
2023-09-30T23:57:51.476Z,2.40
